Weather reports worldwide

Advertisment
Glasgow/Intl, United Kingdom (3140): temperature & dewpoint: 15.08.2017 11:00:00 - 21.08.2017 11:00:00 (BST)Glasgow/Intl, United Kingdom (3140): wind speed: 15.08.2017 11:00:00 - 21.08.2017 11:00:00 (BST)Glasgow/Intl, United Kingdom (3140): wind direction: 15.08.2017 11:00:00 - 21.08.2017 11:00:00 (BST)Glasgow/Intl, United Kingdom (3140): visibility: 15.08.2017 11:00:00 - 21.08.2017 11:00:00 (BST)
Date & Time tt [°C] td [°C] ff [km/h] ff [kn] dd vv [km]
21.08.2017 11:00:00 15,0 11,0 5 3 - 10
21.08.2017 10:00:00 12,0 10,0 5 3 - 10
21.08.2017 09:00:00 10,0 9,0 4 2 - 10
21.08.2017 08:00:00 9,0 9,0 5 3 NNE 10
21.08.2017 07:00:00 7,0 7,0 2 1 - 10
21.08.2017 06:00:00 5,0 5,0 2 1 SW 10
21.08.2017 05:00:00 4,0 4,0 4 2 SW 0,9
21.08.2017 04:00:00 5,0 5,0 4 2 WSW 0,7
21.08.2017 03:00:00 5,0 5,0 2 1 - 0,7
21.08.2017 02:00:00 6,0 6,0 4 2 - 2,6
21.08.2017 01:00:00 7,0 7,0 2 1 - 10
21.08.2017 00:00:00 8,0 7,0 5 3 SSW 10
20.08.2017 23:00:00 8,0 7,0 5 3 W 10
20.08.2017 22:00:00 11,0 8,0 4 2 - 10
20.08.2017 21:00:00 13,0 8,0 4 2 W 10
20.08.2017 20:00:00 15,0 9,0 5 3 WSW 10
20.08.2017 19:00:00 16,0 10,0 15 8 SW 10
20.08.2017 18:00:00 17,0 10,0 16 9 SW 10
20.08.2017 17:00:00 17,0 11,0 16 9 SW 10
20.08.2017 16:00:00 17,0 11,0 15 8 SW 10
20.08.2017 15:00:00 17,0 12,0 16 9 SW 10
20.08.2017 14:00:00 15,0 12,0 18 10 SSW 10
20.08.2017 13:00:00 16,0 11,0 13 7 SW 10
20.08.2017 12:00:00 16,0 12,0 8 4 WNW 10
20.08.2017 11:00:00 16,0 12,0 13 7 SW 10
20.08.2017 10:00:00 15,0 11,0 11 6 WSW 10
20.08.2017 09:00:00 14,0 12,0 8 4 SW 10
20.08.2017 08:00:00 13,0 11,0 8 4 WSW 10
20.08.2017 07:00:00 13,0 11,0 8 4 SW 10
20.08.2017 06:00:00 12,0 11,0 9 5 SW 10
20.08.2017 05:00:00 12,0 11,0 8 4 WSW 10
20.08.2017 04:00:00 12,0 11,0 13 7 SSW 10
20.08.2017 03:00:00 13,0 12,0 11 6 W 10
20.08.2017 02:00:00 13,0 12,0 8 4 NW 6
20.08.2017 01:00:00 13,0 11,0 11 6 WSW 10
20.08.2017 00:00:00 12,0 11,0 8 4 WSW 10
19.08.2017 23:00:00 13,0 11,0 11 6 W 10
19.08.2017 22:00:00 13,0 11,0 11 6 WSW 10
19.08.2017 21:00:00 14,0 11,0 18 10 W 10
19.08.2017 20:00:00 15,0 12,0 24 13 W 10
19.08.2017 19:00:00 15,0 12,0 26 14 WSW 10
19.08.2017 18:00:00 15,0 12,0 26 14 W 10
19.08.2017 17:00:00 15,0 12,0 22 12 W 10
19.08.2017 16:00:00 15,0 12,0 29 16 WSW 10
19.08.2017 15:00:00 15,0 12,0 29 16 WSW 9
19.08.2017 14:00:00 14,0 12,0 31 17 WSW 7
19.08.2017 13:00:00 15,0 12,0 31 17 WSW 10
19.08.2017 12:00:00 14,0 12,0 24 13 WSW 8
19.08.2017 11:00:00 14,0 11,0 26 14 WSW 10
19.08.2017 10:00:00 15,0 11,0 28 15 WSW 10
19.08.2017 09:00:00 13,0 10,0 21 11 WSW 10
19.08.2017 08:00:00 13,0 9,0 24 13 WSW 10
19.08.2017 07:00:00 11,0 9,0 24 13 WSW 10
19.08.2017 06:00:00 11,0 9,0 15 8 SW 10
19.08.2017 05:00:00 12,0 9,0 18 10 W 10
19.08.2017 04:00:00 12,0 10,0 18 10 WSW 10
19.08.2017 03:00:00 11,0 9,0 15 8 SW 10
19.08.2017 02:00:00 12,0 10,0 13 7 SSW 10
19.08.2017 01:00:00 12,0 9,0 15 8 WSW 10
19.08.2017 00:00:00 13,0 10,0 18 10 W 10
18.08.2017 23:00:00 13,0 11,0 18 10 W 10
18.08.2017 22:00:00 13,0 12,0 21 11 WSW 10
18.08.2017 21:00:00 13,0 11,0 24 13 SSW 8
18.08.2017 20:00:00 14,0 11,0 22 12 SW 10
18.08.2017 19:00:00 14,0 11,0 21 11 WSW 10
18.08.2017 18:00:00 13,0 11,0 24 13 WSW 10
18.08.2017 17:00:00 15,0 10,0 29 16 WSW 10
18.08.2017 16:00:00 15,0 10,0 34 18 WSW 10
18.08.2017 15:00:00 14,0 10,0 26 14 WSW 10
18.08.2017 14:00:00 16,0 11,0 29 16 WSW 10
18.08.2017 13:00:00 15,0 11,0 29 16 SW 10
18.08.2017 12:00:00 13,0 10,0 26 14 SW 10
18.08.2017 11:00:00 15,0 11,0 22 12 WSW 10
18.08.2017 10:00:00 14,0 11,0 21 11 WSW 10
18.08.2017 09:00:00 12,0 11,0 15 8 WSW 2,9
18.08.2017 08:00:00 12,0 10,0 15 8 SW 10
18.08.2017 07:00:00 12,0 10,0 15 8 WSW 10
18.08.2017 06:00:00 12,0 10,0 18 10 WSW 10
18.08.2017 05:00:00 13,0 11,0 18 10 WNW 10
18.08.2017 04:00:00 14,0 13,0 15 8 S 10
18.08.2017 03:00:00 14,0 13,0 11 6 SSW 10
18.08.2017 02:00:00 14,0 13,0 5 3 - 5
18.08.2017 01:00:00 14,0 13,0 9 5 E 10
18.08.2017 00:00:00 14,0 13,0 11 6 SSE 10
17.08.2017 23:00:00 13,0 12,0 5 3 - 10
17.08.2017 22:00:00 14,0 13,0 9 5 ENE 10
17.08.2017 21:00:00 14,0 13,0 5 3 - 10
17.08.2017 20:00:00 14,0 13,0 2 1 - 10
17.08.2017 19:00:00 14,0 13,0 9 5 SW 5
17.08.2017 18:00:00 18,0 13,0 21 11 S 10
17.08.2017 17:00:00 19,0 13,0 28 15 SSW 10
17.08.2017 16:00:00 19,0 14,0 31 17 SSW 10
17.08.2017 15:00:00 19,0 14,0 28 15 SSW 10
17.08.2017 14:00:00 19,0 13,0 31 17 SSW 10
17.08.2017 13:00:00 19,0 13,0 31 17 SSW 10
17.08.2017 12:00:00 17,0 13,0 34 18 SW 10
17.08.2017 11:00:00 17,0 13,0 22 12 SSW 10
17.08.2017 10:00:00 15,0 12,0 22 12 S 10
17.08.2017 09:00:00 15,0 12,0 16 9 SSW 10
17.08.2017 08:00:00 14,0 13,0 16 9 SW 10
17.08.2017 07:00:00 11,0 11,0 5 3 - 10
17.08.2017 06:00:00 9,0 9,0 2 1 - 10
17.08.2017 05:00:00 10,0 9,0 4 2 - 10
17.08.2017 04:00:00 13,0 12,0 4 2 - 9
17.08.2017 03:00:00 13,0 12,0 16 9 SW 10
17.08.2017 02:00:00 15,0 14,0 21 11 SW 10
17.08.2017 01:00:00 16,0 15,0 9 5 SSW 10
17.08.2017 00:00:00 16,0 15,0 5 3 - 10
16.08.2017 23:00:00 16,0 15,0 9 5 WSW 10
16.08.2017 22:00:00 17,0 15,0 26 14 S 10
16.08.2017 21:00:00 17,0 14,0 21 11 S 10
16.08.2017 20:00:00 16,0 14,0 21 11 S 10
16.08.2017 19:00:00 16,0 14,0 21 11 S 10
16.08.2017 18:00:00 16,0 14,0 28 15 S 10
16.08.2017 17:00:00 16,0 14,0 29 16 S 10
16.08.2017 16:00:00 16,0 14,0 13 7 S 8
16.08.2017 15:00:00 15,0 14,0 16 9 S 4,3
16.08.2017 14:00:00 15,0 13,0 18 10 SSE 7
16.08.2017 13:00:00 16,0 13,0 16 9 SSE 9
16.08.2017 12:00:00 16,0 12,0 18 10 SSE 10
16.08.2017 11:00:00 16,0 12,0 21 11 SSE 10
16.08.2017 10:00:00 16,0 11,0 24 13 S 10
16.08.2017 09:00:00 15,0 12,0 2 1 - 10
16.08.2017 08:00:00 12,0 10,0 11 6 ENE 10
16.08.2017 07:00:00 11,0 10,0 11 6 ENE 10
16.08.2017 06:00:00 10,0 10,0 9 5 ENE 10
16.08.2017 05:00:00 10,0 10,0 8 4 NNE 10
16.08.2017 04:00:00 11,0 10,0 5 3 ENE 10
16.08.2017 03:00:00 10,0 10,0 5 3 NE 10
16.08.2017 02:00:00 9,0 9,0 2 1 - 10
16.08.2017 01:00:00 11,0 10,0 4 2 SW 10
16.08.2017 00:00:00 10,0 9,0 4 2 SW 10
15.08.2017 23:00:00 12,0 10,0 13 7 WSW 10
15.08.2017 22:00:00 13,0 10,0 9 5 S 10
15.08.2017 21:00:00 13,0 10,0 16 9 SW 10
15.08.2017 20:00:00 15,0 11,0 16 9 WSW 10
15.08.2017 19:00:00 16,0 10,0 24 13 WSW 10
15.08.2017 18:00:00 16,0 10,0 26 14 WSW 10
15.08.2017 17:00:00 17,0 10,0 29 16 WSW 10
15.08.2017 16:00:00 17,0 13,0 26 14 SW 10
15.08.2017 15:00:00 17,0 12,0 31 17 SW 10
15.08.2017 14:00:00 16,0 12,0 16 9 WSW 10
15.08.2017 13:00:00 16,0 12,0 18 10 W 10
15.08.2017 12:00:00 17,0 12,0 28 15 SW 10
15.08.2017 11:00:00 16,0 12,0 24 13 SW 10

tt = temperature
td = dewpoint
ff = wind speed
dd = wind direction
vv = visibility

Next stations